createdAt,value
2019-03-30T00:00:23.010Z,7.23
2019-03-30T00:01:23.184Z,7.25
2019-03-30T00:02:23.400Z,7.25
2019-03-30T00:03:23.534Z,7.23
2019-03-30T00:04:23.717Z,7.25
2019-03-30T00:05:23.883Z,6.92
2019-03-30T00:06:24.060Z,6.93
2019-03-30T00:07:24.230Z,6.97
2019-03-30T00:11:09.706Z,6.67
2019-03-30T00:12:09.889Z,6.63
2019-03-30T00:13:10.060Z,6.77
2019-03-30T00:14:10.233Z,6.67
2019-03-30T00:15:10.409Z,6.89
2019-03-30T00:16:10.574Z,6.84
2019-03-30T00:17:10.753Z,6.93
2019-03-30T00:18:10.930Z,6.81
2019-03-30T00:19:11.091Z,6.84
2019-03-30T00:20:11.268Z,6.82
2019-03-30T00:21:11.438Z,6.74
2019-03-30T00:22:11.610Z,6.84
2019-03-30T00:23:11.782Z,6.87
2019-03-30T00:24:11.956Z,6.82
2019-03-30T00:25:12.129Z,6.87
2019-03-30T00:26:12.288Z,6.96
2019-03-30T00:27:12.469Z,6.87
2019-03-30T00:28:12.635Z,6.84
2019-03-30T00:29:12.805Z,6.88
2019-03-30T00:30:12.975Z,6.85
2019-03-30T00:31:13.144Z,6.95
2019-03-30T00:32:13.318Z,6.89
2019-03-30T00:33:13.497Z,6.79
2019-03-30T00:34:13.660Z,6.74
2019-03-30T00:35:13.837Z,6.75
2019-03-30T00:36:14.008Z,6.78
2019-03-30T00:37:14.188Z,6.78
2019-03-30T00:38:14.347Z,6.66
2019-03-30T00:39:14.515Z,6.66
2019-03-30T00:40:14.700Z,6.72
2019-03-30T00:41:14.863Z,6.59
2019-03-30T00:42:15.046Z,6.60
2019-03-30T00:43:15.210Z,6.59
2019-03-30T00:44:15.376Z,6.46
2019-03-30T00:45:15.556Z,6.48
2019-03-30T00:46:15.737Z,6.59
2019-03-30T00:47:15.897Z,6.56
2019-03-30T00:48:16.077Z,6.48
2019-03-30T00:49:16.259Z,6.57
2019-03-30T00:50:16.414Z,6.45
2019-03-30T00:51:16.588Z,6.62
2019-03-30T00:52:16.762Z,6.48
2019-03-30T00:53:16.935Z,6.52
2019-03-30T00:54:17.104Z,6.45
2019-03-30T00:55:17.275Z,6.59
2019-03-30T00:56:17.449Z,6.59
2019-03-30T00:57:17.624Z,6.52
2019-03-30T00:58:17.794Z,6.57
2019-03-30T00:59:17.970Z,6.51
2019-03-30T01:00:18.145Z,6.45
2019-03-30T01:01:18.310Z,6.46
2019-03-30T01:02:18.484Z,6.42
2019-03-30T01:03:18.656Z,6.49
2019-03-30T01:04:18.828Z,6.44
2019-03-30T01:05:19.000Z,6.45
2019-03-30T01:06:19.172Z,6.48
2019-03-30T01:07:19.345Z,6.41
2019-03-30T01:08:19.518Z,6.49
2019-03-30T01:09:19.692Z,6.54
2019-03-30T01:10:19.871Z,6.51
2019-03-30T01:11:20.039Z,6.57
2019-03-30T01:12:20.209Z,6.42
2019-03-30T01:13:20.382Z,6.28
2019-03-30T01:14:20.551Z,6.24
2019-03-30T01:15:20.730Z,6.16
2019-03-30T01:16:20.898Z,6.04
2019-03-30T01:17:21.071Z,6.11
2019-03-30T01:18:21.240Z,6.08
2019-03-30T01:19:21.418Z,6.12
2019-03-30T01:20:21.585Z,6.14
2019-03-30T01:21:21.756Z,6.09
2019-03-30T01:22:21.937Z,6.19
2019-03-30T01:23:22.097Z,5.90
2019-03-30T01:24:22.274Z,5.72
2019-03-30T01:25:22.441Z,5.76
2019-03-30T01:26:22.612Z,5.75
2019-03-30T01:27:22.787Z,5.82
2019-03-30T01:28:22.957Z,5.84
2019-03-30T01:29:23.132Z,5.89
2019-03-30T01:30:23.730Z,5.73
2019-03-30T01:31:23.472Z,5.76
2019-03-30T01:32:23.647Z,5.86
2019-03-30T01:33:23.816Z,5.84
2019-03-30T01:34:23.986Z,5.93
2019-03-30T01:35:24.224Z,6.02
2019-03-30T01:36:24.330Z,5.97
2019-03-30T01:37:24.509Z,6.08
2019-03-30T01:38:24.683Z,5.91
2019-03-30T01:39:24.844Z,5.91
2019-03-30T01:40:25.018Z,6.02
2019-03-30T01:41:25.189Z,6.04
2019-03-30T01:42:25.359Z,5.99
2019-03-30T01:43:25.530Z,6.07
2019-03-30T01:44:25.702Z,6.02
2019-03-30T01:45:25.870Z,5.98
2019-03-30T01:46:26.044Z,5.98
2019-03-30T01:47:26.215Z,5.93
2019-03-30T01:48:26.398Z,5.91
2019-03-30T01:49:26.556Z,5.91
2019-03-30T01:50:26.727Z,6.05
2019-03-30T01:51:26.899Z,5.94
2019-03-30T01:52:27.081Z,5.94
2019-03-30T01:53:27.246Z,6.02
2019-03-30T01:54:28.271Z,5.73
2019-03-30T01:55:27.560Z,5.76
2019-03-30T01:56:27.735Z,5.68
2019-03-30T01:57:27.910Z,5.43
2019-03-30T01:58:28.081Z,5.50
2019-03-30T01:59:28.259Z,5.41
2019-03-30T02:00:28.427Z,5.36
2019-03-30T02:01:28.598Z,5.32
2019-03-30T02:02:28.771Z,5.18
2019-03-30T02:03:28.943Z,5.05
2019-03-30T02:04:29.122Z,5.18
2019-03-30T02:05:29.284Z,5.15
2019-03-30T02:06:29.457Z,5.23
2019-03-30T02:07:29.629Z,5.30
2019-03-30T02:08:29.803Z,5.39
2019-03-30T02:09:29.970Z,5.46
2019-03-30T02:10:30.141Z,5.48
2019-03-30T02:11:30.317Z,5.44
2019-03-30T02:12:30.490Z,5.54
2019-03-30T02:13:30.659Z,5.66
2019-03-30T02:14:30.830Z,5.59
2019-03-30T02:15:31.007Z,5.64
2019-03-30T02:16:31.170Z,5.64
2019-03-30T02:17:31.343Z,5.65
2019-03-30T02:18:31.514Z,5.64
2019-03-30T02:19:31.685Z,5.64
2019-03-30T02:20:31.857Z,5.57
2019-03-30T02:21:32.033Z,5.65
2019-03-30T02:22:32.205Z,5.65
2019-03-30T02:23:32.374Z,5.72
2019-03-30T02:24:32.544Z,5.71
2019-03-30T02:25:32.711Z,5.65
2019-03-30T02:26:32.886Z,5.71
2019-03-30T02:27:33.058Z,5.59
2019-03-30T02:28:33.229Z,5.65
2019-03-30T02:29:33.399Z,5.51
2019-03-30T02:30:33.577Z,5.47
2019-03-30T02:31:33.744Z,5.39
2019-03-30T02:32:33.925Z,5.36
2019-03-30T02:33:34.093Z,5.39
2019-03-30T02:34:34.254Z,5.38
2019-03-30T02:35:34.430Z,5.38
2019-03-30T02:36:34.605Z,5.28
2019-03-30T02:37:34.767Z,5.20
2019-03-30T02:38:34.937Z,5.04
2019-03-30T02:39:35.114Z,5.15
2019-03-30T02:40:35.295Z,5.14
2019-03-30T02:41:35.457Z,5.23
2019-03-30T02:42:35.652Z,5.23
2019-03-30T02:43:35.802Z,5.14
2019-03-30T02:44:35.972Z,5.20
2019-03-30T02:45:36.164Z,5.17
2019-03-30T02:46:36.343Z,5.25
2019-03-30T02:47:36.498Z,5.20
2019-03-30T02:48:36.670Z,5.18
2019-03-30T02:49:36.848Z,5.23
2019-03-30T02:50:49.218Z,5.25
2019-03-30T02:51:37.207Z,5.41
2019-03-30T02:52:37.376Z,5.28
2019-03-30T02:53:37.545Z,5.35
2019-03-30T02:54:37.720Z,5.50
2019-03-30T02:55:37.919Z,5.12
2019-03-30T02:56:38.062Z,5.08
2019-03-30T02:57:38.262Z,5.05
2019-03-30T02:58:38.403Z,5.07
2019-03-30T02:59:38.575Z,5.05
2019-03-30T03:00:38.769Z,5.15
2019-03-30T03:01:38.918Z,5.14
2019-03-30T03:02:39.094Z,5.17
2019-03-30T03:03:39.261Z,5.12
2019-03-30T03:04:39.444Z,5.14
2019-03-30T03:05:39.602Z,5.15
2019-03-30T03:06:39.779Z,4.90
2019-03-30T03:07:39.948Z,4.87
2019-03-30T03:08:40.130Z,4.80
2019-03-30T03:09:40.291Z,4.82
2019-03-30T03:10:40.471Z,4.82
2019-03-30T03:11:40.634Z,4.73
2019-03-30T03:12:40.805Z,4.77
2019-03-30T03:13:40.979Z,4.84
2019-03-30T03:14:41.150Z,4.86
2019-03-30T03:15:41.323Z,4.89
2019-03-30T03:16:41.505Z,4.90
2019-03-30T03:17:41.708Z,4.89
2019-03-30T03:18:41.834Z,4.82
2019-03-30T03:19:42.004Z,4.86
2019-03-30T03:20:42.173Z,4.96
2019-03-30T03:21:42.345Z,4.92
2019-03-30T03:22:42.520Z,4.80
2019-03-30T03:23:42.688Z,4.82
2019-03-30T03:24:42.861Z,4.92
2019-03-30T03:25:43.036Z,4.89
2019-03-30T03:26:43.224Z,5.00
2019-03-30T03:27:43.375Z,4.94
2019-03-30T03:28:43.545Z,5.05
2019-03-30T03:29:44.297Z,5.14
2019-03-30T03:30:43.900Z,5.12
2019-03-30T03:31:44.075Z,5.12
2019-03-30T03:32:44.225Z,5.25
2019-03-30T03:33:44.401Z,5.12
2019-03-30T03:34:44.580Z,5.17
2019-03-30T03:35:44.885Z,5.05
2019-03-30T03:36:44.911Z,5.10
2019-03-30T03:37:46.399Z,5.15
2019-03-30T03:38:45.254Z,5.11
2019-03-30T03:39:45.425Z,5.10
2019-03-30T03:40:45.593Z,5.04
2019-03-30T03:41:45.769Z,5.04
2019-03-30T03:42:46.797Z,4.94
2019-03-30T03:43:46.088Z,4.86
2019-03-30T03:44:46.253Z,4.87
2019-03-30T03:45:46.428Z,4.87
2019-03-30T03:46:46.605Z,4.86
2019-03-30T03:47:46.774Z,4.93
2019-03-30T03:48:46.945Z,4.99
2019-03-30T03:49:47.114Z,4.92
2019-03-30T03:50:47.283Z,4.90
2019-03-30T03:51:47.456Z,4.93
2019-03-30T03:52:47.628Z,4.87
2019-03-30T03:53:47.816Z,4.87
2019-03-30T03:54:47.971Z,4.92
2019-03-30T03:55:48.154Z,4.94
2019-03-30T03:56:49.293Z,4.93
2019-03-30T03:57:48.463Z,4.89
2019-03-30T03:58:48.865Z,4.77
2019-03-30T03:59:48.799Z,4.73
2019-03-30T04:00:48.971Z,4.63
2019-03-30T04:01:49.143Z,4.68
2019-03-30T04:02:49.318Z,4.60
2019-03-30T04:03:49.483Z,4.60
2019-03-30T04:04:49.663Z,4.45
2019-03-30T04:05:49.832Z,4.45
2019-03-30T04:06:50.004Z,4.53
2019-03-30T04:07:50.176Z,4.58
2019-03-30T04:08:50.351Z,4.66
2019-03-30T04:09:50.523Z,4.67
2019-03-30T04:10:50.689Z,4.75
2019-03-30T04:11:50.866Z,4.71
2019-03-30T04:12:51.032Z,4.68
2019-03-30T04:13:51.202Z,4.78
2019-03-30T04:14:51.375Z,4.62
2019-03-30T04:15:51.550Z,4.71
2019-03-30T04:16:51.736Z,4.75
2019-03-30T04:17:51.902Z,4.73
2019-03-30T04:18:52.088Z,4.68
2019-03-30T04:19:52.245Z,4.71
2019-03-30T04:20:52.411Z,4.71
2019-03-30T04:21:52.595Z,4.60
2019-03-30T04:22:52.766Z,4.60
2019-03-30T04:23:54.488Z,4.77
2019-03-30T04:24:53.125Z,4.66
2019-03-30T04:25:53.306Z,4.66
2019-03-30T04:26:53.467Z,4.59
2019-03-30T04:27:53.654Z,4.62
2019-03-30T04:28:53.826Z,4.70
2019-03-30T04:29:53.997Z,4.67
2019-03-30T04:30:54.171Z,4.66
2019-03-30T04:31:54.336Z,4.71
2019-03-30T04:32:54.510Z,4.73
2019-03-30T04:33:54.702Z,4.82
2019-03-30T04:34:54.847Z,4.68
2019-03-30T04:35:55.021Z,4.75
2019-03-30T04:36:55.201Z,4.75
2019-03-30T04:37:55.369Z,4.84
2019-03-30T04:38:55.535Z,4.84
2019-03-30T04:39:55.709Z,4.80
2019-03-30T04:40:55.879Z,4.77
2019-03-30T04:41:56.054Z,4.92
2019-03-30T04:42:56.219Z,4.86
2019-03-30T04:43:56.392Z,4.77
2019-03-30T04:44:56.583Z,4.66
2019-03-30T04:45:56.747Z,4.58
2019-03-30T04:46:56.907Z,4.49
2019-03-30T04:47:57.155Z,4.59
2019-03-30T04:48:57.285Z,4.58
2019-03-30T04:49:57.427Z,4.60
2019-03-30T04:50:57.591Z,4.56
2019-03-30T04:51:58.229Z,4.63
2019-03-30T04:52:57.932Z,4.67
2019-03-30T04:53:58.105Z,4.63
2019-03-30T04:54:58.275Z,4.73
2019-03-30T04:55:58.454Z,4.68
2019-03-30T04:56:58.619Z,4.48
2019-03-30T04:57:58.788Z,4.45
2019-03-30T04:58:58.959Z,4.58
2019-03-30T04:59:59.133Z,4.48
2019-03-30T05:00:59.303Z,4.52
2019-03-30T05:01:59.477Z,4.58
2019-03-30T05:02:59.645Z,4.59
2019-03-30T05:03:59.819Z,4.45
2019-03-30T05:04:59.988Z,4.17
2019-03-30T05:06:00.165Z,3.99
2019-03-30T05:07:00.331Z,3.99
2019-03-30T05:08:00.504Z,4.08
2019-03-30T05:09:00.675Z,4.08
2019-03-30T05:10:00.843Z,4.05
2019-03-30T05:11:01.015Z,4.02
2019-03-30T05:12:01.185Z,3.98
2019-03-30T05:13:01.357Z,4.05
2019-03-30T05:14:01.527Z,3.99
2019-03-30T05:15:01.710Z,3.98
2019-03-30T05:16:01.871Z,3.98
2019-03-30T05:17:02.041Z,4.06
2019-03-30T05:18:02.212Z,3.95
2019-03-30T05:19:02.387Z,3.98
2019-03-30T05:20:02.558Z,3.78
2019-03-30T05:21:02.728Z,3.81
2019-03-30T05:22:12.027Z,3.87
2019-03-30T05:23:03.069Z,3.92
2019-03-30T05:24:03.249Z,3.86
2019-03-30T05:25:03.419Z,3.84
2019-03-30T05:26:03.584Z,3.88
2019-03-30T05:27:03.753Z,3.98
2019-03-30T05:28:03.925Z,3.95
2019-03-30T05:29:04.093Z,3.95
2019-03-30T05:30:04.276Z,4.05
2019-03-30T05:31:04.442Z,4.13
2019-03-30T05:32:04.612Z,4.10
2019-03-30T05:33:06.344Z,4.19
2019-03-30T05:34:04.961Z,4.30
2019-03-30T05:35:05.175Z,4.38
2019-03-30T05:36:05.304Z,4.44
2019-03-30T05:37:05.466Z,4.40
2019-03-30T05:38:05.637Z,4.35
2019-03-30T05:39:05.811Z,4.40
2019-03-30T05:40:05.981Z,4.08
2019-03-30T05:41:06.152Z,4.10
2019-03-30T05:42:06.321Z,4.20
2019-03-30T05:43:06.507Z,4.26
2019-03-30T05:44:06.665Z,4.45
2019-03-30T05:45:06.833Z,4.52
2019-03-30T05:46:07.017Z,4.48
2019-03-30T05:47:07.179Z,4.49
2019-03-30T05:48:07.342Z,4.67
2019-03-30T05:49:07.516Z,4.74
2019-03-30T05:50:07.684Z,4.75
2019-03-30T05:51:07.860Z,4.77
2019-03-30T05:52:08.031Z,4.87
2019-03-30T05:53:08.202Z,4.90
2019-03-30T05:54:08.374Z,4.87
2019-03-30T05:55:08.546Z,4.89
2019-03-30T05:56:08.717Z,4.92
2019-03-30T05:57:08.887Z,4.87
2019-03-30T05:58:09.059Z,4.94
2019-03-30T05:59:09.231Z,4.97
2019-03-30T06:00:09.402Z,4.87
2019-03-30T06:01:09.576Z,4.82
2019-03-30T06:02:09.758Z,4.77
2019-03-30T06:03:09.924Z,4.78
2019-03-30T06:04:10.089Z,4.87
2019-03-30T06:05:10.263Z,4.92
2019-03-30T06:06:10.438Z,4.89
2019-03-30T06:07:10.618Z,4.92
2019-03-30T06:08:10.790Z,4.90
2019-03-30T06:09:10.955Z,4.89
2019-03-30T06:10:11.128Z,4.78
2019-03-30T06:11:11.293Z,4.74
2019-03-30T06:12:11.539Z,4.78
2019-03-30T06:13:11.638Z,4.70
2019-03-30T06:14:11.811Z,4.82
2019-03-30T06:15:11.991Z,4.90
2019-03-30T06:16:12.160Z,5.07
2019-03-30T06:17:12.323Z,5.05
2019-03-30T06:18:12.508Z,5.05
2019-03-30T06:19:12.661Z,5.11
2019-03-30T06:20:12.833Z,5.07
2019-03-30T06:21:13.005Z,5.07
2019-03-30T06:22:13.175Z,4.93
2019-03-30T06:23:13.358Z,5.02
2019-03-30T06:24:13.516Z,4.99
2019-03-30T06:25:13.692Z,5.02
2019-03-30T06:26:13.864Z,5.17
2019-03-30T06:27:14.044Z,5.17
2019-03-30T06:28:14.208Z,5.12
2019-03-30T06:29:14.377Z,5.15
2019-03-30T06:30:14.548Z,5.20
2019-03-30T06:31:14.725Z,5.14
2019-03-30T06:32:14.896Z,5.23
2019-03-30T06:33:15.064Z,5.25
2019-03-30T06:34:15.243Z,5.38
2019-03-30T06:35:15.417Z,5.32
2019-03-30T06:36:15.585Z,5.35
2019-03-30T06:37:15.762Z,5.36
2019-03-30T06:38:15.918Z,5.36
2019-03-30T06:39:16.095Z,5.43
2019-03-30T06:40:16.258Z,5.36
2019-03-30T06:41:16.447Z,5.44
2019-03-30T06:42:16.617Z,5.48
2019-03-30T06:43:16.787Z,5.47
2019-03-30T06:44:16.958Z,5.54
2019-03-30T06:45:17.133Z,5.53
2019-03-30T06:46:17.296Z,5.64
2019-03-30T06:47:17.474Z,5.56
2019-03-30T06:48:17.641Z,5.48
2019-03-30T06:49:17.819Z,5.62
2019-03-30T06:50:17.985Z,5.56
2019-03-30T06:51:18.162Z,5.69
2019-03-30T06:52:18.332Z,5.61
2019-03-30T06:53:18.505Z,5.54
2019-03-30T06:54:18.674Z,5.39
2019-03-30T06:55:18.845Z,5.43
2019-03-30T06:56:19.031Z,5.47
2019-03-30T06:57:19.199Z,5.46
2019-03-30T06:58:19.374Z,5.59
2019-03-30T06:59:19.544Z,5.57
2019-03-30T07:00:19.715Z,5.62
2019-03-30T07:01:19.895Z,5.62
2019-03-30T07:02:20.061Z,5.56
2019-03-30T07:03:20.233Z,5.59
2019-03-30T07:04:20.426Z,5.68
2019-03-30T07:05:20.573Z,5.51
2019-03-30T07:06:20.752Z,5.59
2019-03-30T07:07:20.917Z,5.72
2019-03-30T07:08:21.097Z,5.83
2019-03-30T07:09:21.283Z,5.86
2019-03-30T07:10:21.435Z,5.86
2019-03-30T07:11:21.703Z,5.83
2019-03-30T07:12:21.777Z,5.90
2019-03-30T07:13:22.023Z,5.87
2019-03-30T07:14:22.121Z,6.04
2019-03-30T07:15:22.297Z,6.12
2019-03-30T07:16:22.485Z,6.17
2019-03-30T07:17:22.640Z,6.14
2019-03-30T07:18:22.812Z,6.14
2019-03-30T07:19:22.986Z,6.22
2019-03-30T07:20:23.157Z,6.52
2019-03-30T07:21:23.330Z,6.72
2019-03-30T07:22:23.505Z,6.88
2019-03-30T07:23:23.674Z,7.06
2019-03-30T07:24:24.834Z,7.39
2019-03-30T07:25:24.002Z,7.70
2019-03-30T07:26:24.180Z,7.83
2019-03-30T07:27:24.344Z,8.10
2019-03-30T07:28:24.526Z,8.30
2019-03-30T07:29:24.708Z,8.33
2019-03-30T07:30:24.870Z,8.26
2019-03-30T07:31:25.052Z,8.30
2019-03-30T07:32:25.223Z,7.98
2019-03-30T07:33:25.395Z,7.95
2019-03-30T07:34:25.566Z,8.31
2019-03-30T07:35:25.738Z,8.52
2019-03-30T07:36:25.911Z,8.58
2019-03-30T07:37:26.108Z,8.67
2019-03-30T07:38:26.277Z,8.91
2019-03-30T07:39:26.450Z,8.78
2019-03-30T07:40:26.622Z,8.55
2019-03-30T07:41:26.802Z,8.71
2019-03-30T07:42:26.969Z,8.42
2019-03-30T07:43:27.151Z,8.41
2019-03-30T07:44:27.320Z,8.13
2019-03-30T07:45:27.498Z,8.37
2019-03-30T07:46:27.669Z,8.48
2019-03-30T07:47:27.837Z,8.70
2019-03-30T07:48:28.017Z,9.04
2019-03-30T07:49:28.190Z,9.00
2019-03-30T07:50:28.373Z,9.37
2019-03-30T07:51:28.541Z,9.56
2019-03-30T07:52:28.728Z,9.84
2019-03-30T07:53:28.898Z,10.41
2019-03-30T07:54:29.075Z,10.82
2019-03-30T07:55:29.258Z,11.35
2019-03-30T07:56:29.435Z,11.73
2019-03-30T07:57:29.600Z,11.69
2019-03-30T07:58:30.337Z,12.18
2019-03-30T07:59:30.016Z,12.61
2019-03-30T08:00:31.074Z,13.19
2019-03-30T08:01:30.378Z,13.44
2019-03-30T08:02:30.552Z,12.90
2019-03-30T08:03:30.725Z,12.67
2019-03-30T08:04:30.900Z,12.91
2019-03-30T08:05:31.086Z,12.65
2019-03-30T08:06:31.259Z,12.42
2019-03-30T08:07:31.438Z,12.43
2019-03-30T08:08:31.615Z,11.41
2019-03-30T08:09:31.793Z,11.72
2019-03-30T08:10:31.975Z,12.15
2019-03-30T08:11:32.159Z,12.35
2019-03-30T08:12:32.333Z,12.40
2019-03-30T08:13:32.514Z,13.15
2019-03-30T08:14:32.690Z,13.19
2019-03-30T08:15:32.878Z,13.70
2019-03-30T08:16:33.050Z,13.89
2019-03-30T08:17:33.229Z,14.11
2019-03-30T08:18:33.413Z,13.97
2019-03-30T08:19:33.587Z,14.43
2019-03-30T08:20:33.768Z,14.96
2019-03-30T08:21:33.946Z,15.22
2019-03-30T08:22:34.126Z,15.21
2019-03-30T08:23:40.304Z,15.36
2019-03-30T08:24:34.488Z,15.62
2019-03-30T08:25:34.670Z,15.27
2019-03-30T08:26:35.737Z,15.70
2019-03-30T08:27:35.031Z,15.76
2019-03-30T08:28:35.199Z,15.75
2019-03-30T08:29:35.393Z,16.15
2019-03-30T08:30:35.570Z,16.36
2019-03-30T08:31:35.744Z,16.08
2019-03-30T08:32:35.929Z,16.04
2019-03-30T08:33:36.104Z,16.51
2019-03-30T08:34:36.285Z,16.58
2019-03-30T08:35:36.466Z,16.76
2019-03-30T08:36:36.653Z,17.09
2019-03-30T08:37:36.839Z,17.29
2019-03-30T08:38:37.013Z,17.34
2019-03-30T08:39:37.197Z,17.36
2019-03-30T08:40:37.377Z,17.38
2019-03-30T08:41:37.566Z,17.54
2019-03-30T08:42:37.737Z,17.52
2019-03-30T08:43:37.927Z,17.76
2019-03-30T08:44:38.111Z,17.31
2019-03-30T08:45:38.293Z,17.27
2019-03-30T08:46:38.471Z,17.52
2019-03-30T08:47:38.651Z,17.23
2019-03-30T08:48:38.830Z,17.22
2019-03-30T08:49:39.017Z,17.27
2019-03-30T08:50:39.192Z,17.38
2019-03-30T08:51:39.369Z,17.72
2019-03-30T08:52:39.550Z,17.86
2019-03-30T08:53:53.707Z,18.16
2019-03-30T08:54:39.914Z,18.40
2019-03-30T08:55:40.106Z,18.53
2019-03-30T08:56:40.286Z,18.56
2019-03-30T08:57:40.457Z,18.34
2019-03-30T08:58:40.658Z,17.70
2019-03-30T08:59:40.829Z,17.51
2019-03-30T09:00:41.016Z,18.19
2019-03-30T09:01:41.188Z,18.40
2019-03-30T09:02:42.363Z,18.13
2019-03-30T09:03:41.546Z,18.37
2019-03-30T09:04:41.727Z,18.63
2019-03-30T09:05:41.909Z,18.47
2019-03-30T09:06:42.094Z,18.55
2019-03-30T09:07:44.275Z,18.62
2019-03-30T09:08:42.459Z,18.45
2019-03-30T09:09:42.643Z,18.98
2019-03-30T09:10:42.820Z,18.56
2019-03-30T09:11:43.569Z,18.43
2019-03-30T09:12:43.175Z,18.29
2019-03-30T09:13:43.357Z,18.66
2019-03-30T09:14:43.543Z,18.99
2019-03-30T09:15:43.725Z,19.24
2019-03-30T09:16:43.908Z,18.89
2019-03-30T09:17:44.093Z,19.41
2019-03-30T09:18:44.277Z,19.51
2019-03-30T09:19:44.455Z,19.71
2019-03-30T09:20:44.638Z,19.82
2019-03-30T09:21:44.829Z,20.18
2019-03-30T09:22:45.008Z,19.71
2019-03-30T09:23:45.194Z,19.82
2019-03-30T09:24:45.373Z,19.88
2019-03-30T09:25:45.565Z,20.07
2019-03-30T09:26:45.743Z,20.13
2019-03-30T09:27:45.957Z,20.14
2019-03-30T09:28:46.108Z,20.21
2019-03-30T09:29:46.289Z,19.33
2019-03-30T09:30:46.473Z,19.30
2019-03-30T09:31:46.656Z,19.71
2019-03-30T09:32:46.856Z,19.89
2019-03-30T09:33:47.038Z,20.11
2019-03-30T09:34:47.879Z,20.09
2019-03-30T09:35:47.438Z,20.37
2019-03-30T09:36:47.788Z,20.11
2019-03-30T09:37:47.814Z,20.18
2019-03-30T09:38:47.988Z,20.18
2019-03-30T09:39:48.170Z,19.81
2019-03-30T09:40:48.356Z,19.77
2019-03-30T09:41:48.538Z,19.66
2019-03-30T09:42:48.722Z,19.73
2019-03-30T09:43:48.904Z,20.06
2019-03-30T09:44:49.091Z,20.02
2019-03-30T09:45:49.280Z,19.76
2019-03-30T09:46:49.455Z,19.31
2019-03-30T09:47:49.659Z,20.18
2019-03-30T09:48:49.841Z,20.43
2019-03-30T09:49:50.025Z,20.59
2019-03-30T09:50:50.208Z,20.65
2019-03-30T09:51:50.405Z,20.96
2019-03-30T09:52:50.567Z,21.21
2019-03-30T09:53:50.760Z,21.54
2019-03-30T09:54:51.883Z,21.55
2019-03-30T09:55:51.068Z,21.54
2019-03-30T09:56:51.252Z,21.88
2019-03-30T09:57:51.441Z,22.07
2019-03-30T09:58:51.631Z,22.39
2019-03-30T09:59:51.814Z,22.62
2019-03-30T10:01:52.172Z,22.80
2019-03-30T10:02:52.355Z,22.70
2019-03-30T10:03:52.542Z,22.59
2019-03-30T10:04:52.739Z,22.57
2019-03-30T10:05:52.924Z,22.91
2019-03-30T10:06:53.096Z,22.80
2019-03-30T10:07:53.279Z,22.35
2019-03-30T10:08:53.464Z,22.50
2019-03-30T10:09:54.394Z,22.44
2019-03-30T10:10:53.853Z,22.36
2019-03-30T10:11:54.012Z,22.80
2019-03-30T10:12:54.207Z,22.45
2019-03-30T10:13:54.460Z,22.26
2019-03-30T10:14:54.567Z,22.36
2019-03-30T10:15:54.755Z,22.53
2019-03-30T10:16:54.935Z,22.54
2019-03-30T10:17:55.119Z,22.70
2019-03-30T10:18:55.306Z,22.96
2019-03-30T10:20:04.120Z,23.23
2019-03-30T10:20:55.681Z,23.18
2019-03-30T10:21:55.859Z,23.31
2019-03-30T10:22:56.896Z,23.39
2019-03-30T10:23:56.216Z,23.27
2019-03-30T10:24:58.392Z,23.74
2019-03-30T10:25:56.572Z,24.20
2019-03-30T10:26:56.761Z,24.47
2019-03-30T10:27:56.947Z,24.18
2019-03-30T10:28:57.129Z,23.80
2019-03-30T10:29:57.313Z,23.43
2019-03-30T10:30:57.506Z,23.25
2019-03-30T10:31:59.875Z,23.68
2019-03-30T10:32:57.879Z,22.78
2019-03-30T10:33:58.058Z,22.22
2019-03-30T10:34:58.238Z,22.76
2019-03-30T10:35:58.428Z,22.45
2019-03-30T10:36:58.619Z,22.73
2019-03-30T10:37:58.795Z,23.55
2019-03-30T10:38:59.904Z,24.20
2019-03-30T10:39:59.216Z,24.40
2019-03-30T10:40:59.389Z,24.42
2019-03-30T10:41:59.582Z,24.40
2019-03-30T10:42:59.782Z,23.93
2019-03-30T10:43:59.957Z,24.18
2019-03-30T10:45:00.342Z,24.17
2019-03-30T10:46:00.338Z,24.03
2019-03-30T10:47:00.533Z,24.32
2019-03-30T10:48:00.706Z,24.54
2019-03-30T10:49:00.878Z,24.36
2019-03-30T10:50:01.069Z,24.05
2019-03-30T10:51:01.251Z,24.03
2019-03-30T10:52:01.444Z,24.28
2019-03-30T10:53:01.631Z,24.55
2019-03-30T10:54:01.818Z,24.58
2019-03-30T10:55:02.002Z,24.81
2019-03-30T10:56:02.191Z,24.40
2019-03-30T10:57:02.383Z,24.01
2019-03-30T10:58:03.411Z,24.33
2019-03-30T10:59:02.738Z,24.57
2019-03-30T11:00:02.922Z,25.08
2019-03-30T11:01:03.105Z,24.84
2019-03-30T11:02:03.292Z,24.69
2019-03-30T11:03:03.480Z,24.54
2019-03-30T11:04:03.683Z,24.61
2019-03-30T11:05:03.866Z,24.91
2019-03-30T11:06:04.040Z,24.99
2019-03-30T11:07:04.242Z,24.73
2019-03-30T11:08:04.428Z,24.77
2019-03-30T11:09:04.613Z,24.78
2019-03-30T11:10:04.791Z,24.63
2019-03-30T11:11:04.975Z,24.70
2019-03-30T11:12:05.177Z,24.80
2019-03-30T11:13:05.350Z,24.74
2019-03-30T11:14:05.540Z,24.60
2019-03-30T11:15:05.724Z,23.86
2019-03-30T11:16:05.932Z,23.13
2019-03-30T11:17:06.102Z,23.06
2019-03-30T11:18:06.292Z,23.00
2019-03-30T11:19:06.486Z,22.76
2019-03-30T11:20:06.662Z,23.02
2019-03-30T11:21:06.848Z,22.96
2019-03-30T11:22:07.044Z,23.13
2019-03-30T11:23:07.224Z,23.15
2019-03-30T11:24:07.409Z,23.28
2019-03-30T11:25:08.981Z,23.37
2019-03-30T11:26:07.778Z,23.39
2019-03-30T11:27:07.966Z,23.10
2019-03-30T11:28:08.141Z,23.36
2019-03-30T11:29:08.328Z,23.47
2019-03-30T11:30:08.517Z,23.32
2019-03-30T11:31:08.712Z,23.39
2019-03-30T11:32:08.882Z,23.37
2019-03-30T11:33:09.069Z,23.37
2019-03-30T11:34:09.254Z,23.40
2019-03-30T11:35:09.438Z,23.18
2019-03-30T11:36:09.622Z,22.72
2019-03-30T11:37:09.810Z,22.17
2019-03-30T11:38:09.993Z,22.32
2019-03-30T11:39:10.929Z,22.23
2019-03-30T11:40:10.359Z,21.69
2019-03-30T11:41:10.548Z,21.96
2019-03-30T11:42:10.729Z,22.17
2019-03-30T11:43:10.908Z,22.29
2019-03-30T11:44:11.097Z,22.43
2019-03-30T11:45:11.285Z,22.66
2019-03-30T11:46:11.459Z,22.65
2019-03-30T11:47:11.642Z,22.63
2019-03-30T11:48:11.830Z,22.60
2019-03-30T11:49:12.011Z,22.39
2019-03-30T11:50:12.202Z,22.50
2019-03-30T11:51:12.456Z,22.66
2019-03-30T11:52:12.578Z,22.51
2019-03-30T11:53:12.751Z,22.54
2019-03-30T11:54:15.974Z,22.43
2019-03-30T11:55:21.590Z,22.41
2019-03-30T11:56:13.302Z,22.55
2019-03-30T11:57:13.485Z,22.59
2019-03-30T11:58:13.668Z,22.73
2019-03-30T11:59:13.857Z,22.63
2019-03-30T12:00:14.033Z,22.62
2019-03-30T12:01:14.948Z,22.53
2019-03-30T12:02:27.341Z,22.63
2019-03-30T12:03:14.556Z,22.63
2019-03-30T12:04:14.738Z,22.78
2019-03-30T12:05:14.919Z,22.76
2019-03-30T12:06:15.103Z,22.70
2019-03-30T12:07:15.286Z,22.90
2019-03-30T12:08:15.488Z,22.99
2019-03-30T12:09:15.655Z,23.09
2019-03-30T12:10:15.840Z,23.09
2019-03-30T12:11:16.017Z,22.59
2019-03-30T12:12:16.201Z,22.57
2019-03-30T12:13:16.384Z,22.78
2019-03-30T12:14:16.572Z,22.83
2019-03-30T12:15:16.752Z,22.78
2019-03-30T12:16:16.939Z,22.72
2019-03-30T12:17:17.131Z,22.51
2019-03-30T12:18:17.302Z,22.66
2019-03-30T12:19:17.497Z,22.69
2019-03-30T12:20:17.671Z,22.62
2019-03-30T12:21:17.860Z,22.63
2019-03-30T12:22:18.046Z,22.69
2019-03-30T12:23:18.221Z,22.65
2019-03-30T12:24:18.412Z,22.63
2019-03-30T12:25:18.588Z,22.48
2019-03-30T12:26:18.770Z,22.25
2019-03-30T12:27:18.960Z,22.36
2019-03-30T12:28:19.147Z,22.45
2019-03-30T12:29:19.320Z,22.65
2019-03-30T12:30:19.506Z,22.54
2019-03-30T12:31:19.710Z,22.44
2019-03-30T12:32:19.876Z,22.10
2019-03-30T12:33:20.055Z,22.06
2019-03-30T12:34:20.244Z,22.23
2019-03-30T12:35:20.419Z,22.28
2019-03-30T12:36:20.603Z,22.17
2019-03-30T12:37:20.786Z,22.04
2019-03-30T12:38:20.963Z,21.67
2019-03-30T12:39:21.145Z,21.83
2019-03-30T12:40:21.333Z,21.66
2019-03-30T12:41:21.594Z,21.70
2019-03-30T12:42:21.696Z,21.92
2019-03-30T12:43:21.875Z,22.10
2019-03-30T12:44:22.066Z,22.11
2019-03-30T12:45:22.249Z,21.98
2019-03-30T12:46:22.429Z,21.61
2019-03-30T12:47:22.613Z,21.61
2019-03-30T12:48:22.789Z,21.64
2019-03-30T12:49:22.971Z,21.77
2019-03-30T12:50:23.154Z,21.96
2019-03-30T12:51:23.403Z,21.83
2019-03-30T12:52:26.413Z,21.89
2019-03-30T12:53:23.700Z,22.02
2019-03-30T12:54:23.891Z,22.11
2019-03-30T12:55:24.067Z,22.23
2019-03-30T12:56:24.246Z,22.36
2019-03-30T12:57:24.961Z,22.44
2019-03-30T12:58:24.642Z,22.50
2019-03-30T12:59:24.826Z,22.41
2019-03-30T13:00:25.081Z,22.26
2019-03-30T13:01:25.191Z,22.36
2019-03-30T13:02:25.372Z,22.39
2019-03-30T13:03:25.560Z,22.38
2019-03-30T13:04:25.741Z,22.35
2019-03-30T13:05:25.919Z,22.07
2019-03-30T13:06:26.113Z,21.80
2019-03-30T13:07:26.284Z,21.80
2019-03-30T13:08:26.466Z,21.91
2019-03-30T13:09:26.648Z,22.13
2019-03-30T13:10:26.828Z,22.10
2019-03-30T13:11:27.010Z,22.04
2019-03-30T13:12:27.193Z,22.11
2019-03-30T13:13:27.385Z,22.04